sensor_id;sensor_type;location;lat;lon;timestamp;P1;durP1;ratioP1;P2;durP2;ratioP2
15254;SDS011;7730;49.610;11.136;2023-06-26T00:02:19;11.43;;;5.32;;
15254;SDS011;7730;49.610;11.136;2023-06-26T00:04:46;11.18;;;5.25;;
15254;SDS011;7730;49.610;11.136;2023-06-26T00:07:13;9.00;;;4.72;;
15254;SDS011;7730;49.610;11.136;2023-06-26T00:09:40;10.45;;;4.70;;
15254;SDS011;7730;49.610;11.136;2023-06-26T00:12:07;8.82;;;4.45;;
15254;SDS011;7730;49.610;11.136;2023-06-26T00:14:34;8.43;;;4.53;;
15254;SDS011;7730;49.610;11.136;2023-06-26T00:17:01;8.82;;;4.57;;
15254;SDS011;7730;49.610;11.136;2023-06-26T00:19:30;8.85;;;4.88;;
15254;SDS011;7730;49.610;11.136;2023-06-26T00:21:58;9.73;;;4.85;;
15254;SDS011;7730;49.610;11.136;2023-06-26T00:24:25;10.40;;;4.72;;
15254;SDS011;7730;49.610;11.136;2023-06-26T00:26:52;8.57;;;4.60;;
15254;SDS011;7730;49.610;11.136;2023-06-26T00:29:19;10.05;;;4.70;;
15254;SDS011;7730;49.610;11.136;2023-06-26T00:31:46;8.88;;;4.63;;
15254;SDS011;7730;49.610;11.136;2023-06-26T00:34:13;9.30;;;4.82;;
15254;SDS011;7730;49.610;11.136;2023-06-26T00:36:41;10.07;;;4.63;;
15254;SDS011;7730;49.610;11.136;2023-06-26T00:39:09;11.20;;;4.78;;
15254;SDS011;7730;49.610;11.136;2023-06-26T00:41:36;9.77;;;4.80;;
15254;SDS011;7730;49.610;11.136;2023-06-26T00:44:03;10.20;;;4.82;;
15254;SDS011;7730;49.610;11.136;2023-06-26T00:46:31;9.38;;;4.47;;
15254;SDS011;7730;49.610;11.136;2023-06-26T00:48:58;8.88;;;4.68;;
15254;SDS011;7730;49.610;11.136;2023-06-26T00:51:26;9.18;;;4.70;;
15254;SDS011;7730;49.610;11.136;2023-06-26T00:53:54;10.85;;;4.82;;
15254;SDS011;7730;49.610;11.136;2023-06-26T00:56:22;8.27;;;4.53;;
15254;SDS011;7730;49.610;11.136;2023-06-26T00:58:49;9.65;;;4.82;;
15254;SDS011;7730;49.610;11.136;2023-06-26T01:01:16;9.18;;;4.47;;
15254;SDS011;7730;49.610;11.136;2023-06-26T01:03:50;8.68;;;4.75;;
15254;SDS011;7730;49.610;11.136;2023-06-26T01:06:18;10.43;;;5.10;;
15254;SDS011;7730;49.610;11.136;2023-06-26T01:08:46;10.57;;;4.97;;
15254;SDS011;7730;49.610;11.136;2023-06-26T01:11:15;9.82;;;4.97;;
15254;SDS011;7730;49.610;11.136;2023-06-26T01:13:42;10.73;;;4.90;;
15254;SDS011;7730;49.610;11.136;2023-06-26T01:16:10;12.50;;;5.57;;
15254;SDS011;7730;49.610;11.136;2023-06-26T01:18:37;12.40;;;5.90;;
15254;SDS011;7730;49.610;11.136;2023-06-26T01:21:07;11.93;;;6.18;;
15254;SDS011;7730;49.610;11.136;2023-06-26T01:23:37;11.63;;;6.18;;
15254;SDS011;7730;49.610;11.136;2023-06-26T01:26:16;11.90;;;6.05;;
15254;SDS011;7730;49.610;11.136;2023-06-26T01:28:44;12.07;;;6.45;;
15254;SDS011;7730;49.610;11.136;2023-06-26T01:31:12;12.63;;;6.07;;
15254;SDS011;7730;49.610;11.136;2023-06-26T01:33:40;11.45;;;6.00;;
15254;SDS011;7730;49.610;11.136;2023-06-26T01:36:07;11.02;;;5.75;;
15254;SDS011;7730;49.610;11.136;2023-06-26T01:38:34;11.00;;;5.70;;
15254;SDS011;7730;49.610;11.136;2023-06-26T01:41:01;9.60;;;4.90;;
15254;SDS011;7730;49.610;11.136;2023-06-26T01:43:31;10.65;;;5.20;;
15254;SDS011;7730;49.610;11.136;2023-06-26T01:46:02;11.75;;;5.75;;
15254;SDS011;7730;49.610;11.136;2023-06-26T01:48:32;12.80;;;6.28;;
15254;SDS011;7730;49.610;11.136;2023-06-26T01:51:00;11.52;;;5.93;;
15254;SDS011;7730;49.610;11.136;2023-06-26T01:53:29;11.45;;;5.95;;
15254;SDS011;7730;49.610;11.136;2023-06-26T01:55:59;11.98;;;6.00;;
15254;SDS011;7730;49.610;11.136;2023-06-26T01:58:27;10.40;;;5.65;;
15254;SDS011;7730;49.610;11.136;2023-06-26T02:00:56;11.18;;;5.68;;
15254;SDS011;7730;49.610;11.136;2023-06-26T02:03:23;12.27;;;5.95;;
15254;SDS011;7730;49.610;11.136;2023-06-26T02:05:50;12.05;;;6.00;;
15254;SDS011;7730;49.610;11.136;2023-06-26T02:08:17;12.07;;;5.85;;
15254;SDS011;7730;49.610;11.136;2023-06-26T02:10:44;11.07;;;5.30;;
15254;SDS011;7730;49.610;11.136;2023-06-26T02:13:11;11.38;;;5.80;;
15254;SDS011;7730;49.610;11.136;2023-06-26T02:15:39;10.77;;;5.60;;
15254;SDS011;7730;49.610;11.136;2023-06-26T02:18:07;11.80;;;6.07;;
15254;SDS011;7730;49.610;11.136;2023-06-26T02:20:35;13.77;;;6.53;;
15254;SDS011;7730;49.610;11.136;2023-06-26T02:23:02;12.20;;;6.40;;
15254;SDS011;7730;49.610;11.136;2023-06-26T02:25:29;12.30;;;6.18;;
15254;SDS011;7730;49.610;11.136;2023-06-26T02:27:56;11.63;;;6.22;;
15254;SDS011;7730;49.610;11.136;2023-06-26T02:30:23;12.70;;;6.45;;
15254;SDS011;7730;49.610;11.136;2023-06-26T02:32:50;12.80;;;7.18;;
15254;SDS011;7730;49.610;11.136;2023-06-26T02:35:18;13.45;;;7.93;;
15254;SDS011;7730;49.610;11.136;2023-06-26T02:37:45;14.02;;;8.10;;
15254;SDS011;7730;49.610;11.136;2023-06-26T02:40:12;14.88;;;8.90;;
15254;SDS011;7730;49.610;11.136;2023-06-26T02:42:39;16.77;;;9.25;;
15254;SDS011;7730;49.610;11.136;2023-06-26T02:45:07;16.25;;;9.02;;
15254;SDS011;7730;49.610;11.136;2023-06-26T02:47:34;14.40;;;8.68;;
15254;SDS011;7730;49.610;11.136;2023-06-26T02:50:04;14.02;;;8.40;;
15254;SDS011;7730;49.610;11.136;2023-06-26T02:52:33;15.80;;;9.18;;
15254;SDS011;7730;49.610;11.136;2023-06-26T02:54:59;14.43;;;7.97;;
15254;SDS011;7730;49.610;11.136;2023-06-26T02:57:26;13.43;;;6.95;;
15254;SDS011;7730;49.610;11.136;2023-06-26T02:59:53;12.48;;;6.38;;
15254;SDS011;7730;49.610;11.136;2023-06-26T03:02:20;11.32;;;5.93;;
15254;SDS011;7730;49.610;11.136;2023-06-26T03:04:47;12.20;;;5.40;;
15254;SDS011;7730;49.610;11.136;2023-06-26T03:07:14;11.40;;;5.30;;
15254;SDS011;7730;49.610;11.136;2023-06-26T03:09:43;12.50;;;5.65;;
15254;SDS011;7730;49.610;11.136;2023-06-26T03:12:10;11.00;;;5.18;;
15254;SDS011;7730;49.610;11.136;2023-06-26T03:14:37;11.57;;;5.43;;
15254;SDS011;7730;49.610;11.136;2023-06-26T03:17:04;11.27;;;5.30;;
15254;SDS011;7730;49.610;11.136;2023-06-26T03:19:32;10.55;;;5.57;;
15254;SDS011;7730;49.610;11.136;2023-06-26T03:21:59;12.27;;;6.43;;
15254;SDS011;7730;49.610;11.136;2023-06-26T03:24:26;12.82;;;6.22;;
15254;SDS011;7730;49.610;11.136;2023-06-26T03:26:54;12.23;;;5.82;;
15254;SDS011;7730;49.610;11.136;2023-06-26T03:29:21;11.27;;;5.53;;
15254;SDS011;7730;49.610;11.136;2023-06-26T03:31:48;10.77;;;5.32;;
15254;SDS011;7730;49.610;11.136;2023-06-26T03:34:15;10.20;;;5.28;;
15254;SDS011;7730;49.610;11.136;2023-06-26T03:36:42;11.30;;;5.82;;
15254;SDS011;7730;49.610;11.136;2023-06-26T03:39:09;11.45;;;6.03;;
15254;SDS011;7730;49.610;11.136;2023-06-26T03:41:36;11.73;;;5.82;;
15254;SDS011;7730;49.610;11.136;2023-06-26T03:44:05;12.85;;;6.40;;
15254;SDS011;7730;49.610;11.136;2023-06-26T03:46:31;12.85;;;6.70;;
15254;SDS011;7730;49.610;11.136;2023-06-26T03:48:58;14.40;;;6.88;;
15254;SDS011;7730;49.610;11.136;2023-06-26T03:51:25;11.30;;;5.57;;
15254;SDS011;7730;49.610;11.136;2023-06-26T03:53:52;10.45;;;5.43;;
15254;SDS011;7730;49.610;11.136;2023-06-26T03:56:19;10.77;;;5.18;;
15254;SDS011;7730;49.610;11.136;2023-06-26T03:58:46;10.73;;;5.38;;
15254;SDS011;7730;49.610;11.136;2023-06-26T04:01:15;10.65;;;5.53;;
15254;SDS011;7730;49.610;11.136;2023-06-26T04:03:42;10.65;;;5.30;;
15254;SDS011;7730;49.610;11.136;2023-06-26T04:06:09;11.65;;;5.50;;
15254;SDS011;7730;49.610;11.136;2023-06-26T04:08:36;11.20;;;5.57;;
15254;SDS011;7730;49.610;11.136;2023-06-26T04:11:03;11.38;;;5.35;;
15254;SDS011;7730;49.610;11.136;2023-06-26T04:13:30;12.35;;;6.10;;
15254;SDS011;7730;49.610;11.136;2023-06-26T04:15:57;12.07;;;6.10;;
15254;SDS011;7730;49.610;11.136;2023-06-26T04:18:25;10.85;;;5.70;;
15254;SDS011;7730;49.610;11.136;2023-06-26T04:21:05;11.48;;;5.70;;
15254;SDS011;7730;49.610;11.136;2023-06-26T04:23:32;11.45;;;5.53;;
15254;SDS011;7730;49.610;11.136;2023-06-26T04:25:59;11.85;;;5.55;;
15254;SDS011;7730;49.610;11.136;2023-06-26T04:28:27;11.02;;;5.32;;
15254;SDS011;7730;49.610;11.136;2023-06-26T04:30:54;12.45;;;5.88;;
15254;SDS011;7730;49.610;11.136;2023-06-26T04:33:21;12.30;;;5.55;;
15254;SDS011;7730;49.610;11.136;2023-06-26T04:35:50;11.82;;;5.38;;
15254;SDS011;7730;49.610;11.136;2023-06-26T04:38:17;12.98;;;5.43;;
15254;SDS011;7730;49.610;11.136;2023-06-26T04:40:45;11.13;;;5.05;;
15254;SDS011;7730;49.610;11.136;2023-06-26T04:43:12;12.52;;;5.40;;
15254;SDS011;7730;49.610;11.136;2023-06-26T04:45:39;12.90;;;5.55;;
15254;SDS011;7730;49.610;11.136;2023-06-26T04:48:06;10.18;;;4.97;;
15254;SDS011;7730;49.610;11.136;2023-06-26T04:50:33;10.60;;;5.43;;
15254;SDS011;7730;49.610;11.136;2023-06-26T04:53:02;11.38;;;5.30;;
15254;SDS011;7730;49.610;11.136;2023-06-26T04:55:29;10.88;;;5.15;;
15254;SDS011;7730;49.610;11.136;2023-06-26T04:57:56;10.70;;;4.93;;
15254;SDS011;7730;49.610;11.136;2023-06-26T05:00:23;10.88;;;5.25;;
15254;SDS011;7730;49.610;11.136;2023-06-26T05:02:50;11.50;;;5.53;;
15254;SDS011;7730;49.610;11.136;2023-06-26T05:05:24;11.32;;;4.88;;
15254;SDS011;7730;49.610;11.136;2023-06-26T05:07:52;11.30;;;5.78;;
15254;SDS011;7730;49.610;11.136;2023-06-26T05:10:20;12.05;;;5.72;;
15254;SDS011;7730;49.610;11.136;2023-06-26T05:12:48;12.57;;;5.82;;
15254;SDS011;7730;49.610;11.136;2023-06-26T05:15:15;12.48;;;5.55;;
15254;SDS011;7730;49.610;11.136;2023-06-26T05:17:42;10.88;;;5.25;;
15254;SDS011;7730;49.610;11.136;2023-06-26T05:20:09;10.98;;;5.00;;
15254;SDS011;7730;49.610;11.136;2023-06-26T05:22:36;10.20;;;4.93;;
15254;SDS011;7730;49.610;11.136;2023-06-26T05:25:04;10.38;;;4.70;;
15254;SDS011;7730;49.610;11.136;2023-06-26T05:27:33;9.70;;;4.60;;
15254;SDS011;7730;49.610;11.136;2023-06-26T05:30:01;11.38;;;5.30;;
15254;SDS011;7730;49.610;11.136;2023-06-26T05:32:28;9.02;;;4.70;;
15254;SDS011;7730;49.610;11.136;2023-06-26T05:34:56;11.15;;;5.10;;
15254;SDS011;7730;49.610;11.136;2023-06-26T05:37:23;10.23;;;4.78;;
15254;SDS011;7730;49.610;11.136;2023-06-26T05:39:52;10.65;;;4.72;;
15254;SDS011;7730;49.610;11.136;2023-06-26T05:42:19;9.60;;;4.88;;
15254;SDS011;7730;49.610;11.136;2023-06-26T05:44:48;9.43;;;4.78;;
15254;SDS011;7730;49.610;11.136;2023-06-26T05:47:15;9.25;;;4.72;;
15254;SDS011;7730;49.610;11.136;2023-06-26T05:49:42;11.40;;;5.00;;
15254;SDS011;7730;49.610;11.136;2023-06-26T05:52:09;9.80;;;4.35;;
15254;SDS011;7730;49.610;11.136;2023-06-26T05:54:37;10.55;;;4.88;;
15254;SDS011;7730;49.610;11.136;2023-06-26T05:57:04;9.77;;;4.55;;
15254;SDS011;7730;49.610;11.136;2023-06-26T05:59:32;11.48;;;4.78;;
15254;SDS011;7730;49.610;11.136;2023-06-26T06:02:00;11.73;;;5.07;;
15254;SDS011;7730;49.610;11.136;2023-06-26T06:04:27;10.73;;;5.10;;
15254;SDS011;7730;49.610;11.136;2023-06-26T06:06:54;11.13;;;4.82;;
15254;SDS011;7730;49.610;11.136;2023-06-26T06:09:21;10.43;;;4.90;;
15254;SDS011;7730;49.610;11.136;2023-06-26T06:11:48;10.32;;;4.88;;
15254;SDS011;7730;49.610;11.136;2023-06-26T06:14:15;11.27;;;5.07;;
15254;SDS011;7730;49.610;11.136;2023-06-26T06:16:42;9.15;;;4.60;;
15254;SDS011;7730;49.610;11.136;2023-06-26T06:19:11;10.98;;;4.80;;
15254;SDS011;7730;49.610;11.136;2023-06-26T06:21:38;10.95;;;4.78;;
15254;SDS011;7730;49.610;11.136;2023-06-26T06:24:05;9.52;;;4.68;;
15254;SDS011;7730;49.610;11.136;2023-06-26T06:26:32;11.07;;;4.80;;
15254;SDS011;7730;49.610;11.136;2023-06-26T06:28:59;10.90;;;5.10;;
15254;SDS011;7730;49.610;11.136;2023-06-26T06:31:26;11.48;;;4.90;;
15254;SDS011;7730;49.610;11.136;2023-06-26T06:33:53;10.30;;;4.78;;
15254;SDS011;7730;49.610;11.136;2023-06-26T06:36:22;10.48;;;4.70;;
15254;SDS011;7730;49.610;11.136;2023-06-26T06:38:49;10.77;;;4.72;;
15254;SDS011;7730;49.610;11.136;2023-06-26T06:41:16;10.45;;;4.53;;
15254;SDS011;7730;49.610;11.136;2023-06-26T06:43:43;10.23;;;4.72;;
15254;SDS011;7730;49.610;11.136;2023-06-26T06:46:10;10.15;;;4.95;;
15254;SDS011;7730;49.610;11.136;2023-06-26T06:48:37;10.35;;;4.70;;
15254;SDS011;7730;49.610;11.136;2023-06-26T06:51:04;10.57;;;4.63;;
15254;SDS011;7730;49.610;11.136;2023-06-26T06:53:32;11.65;;;5.38;;
15254;SDS011;7730;49.610;11.136;2023-06-26T06:55:59;11.07;;;4.80;;
15254;SDS011;7730;49.610;11.136;2023-06-26T06:58:26;9.63;;;4.50;;
15254;SDS011;7730;49.610;11.136;2023-06-26T07:00:53;8.80;;;4.47;;
15254;SDS011;7730;49.610;11.136;2023-06-26T07:03:20;10.75;;;5.32;;
15254;SDS011;7730;49.610;11.136;2023-06-26T07:05:48;9.60;;;4.88;;
15254;SDS011;7730;49.610;11.136;2023-06-26T07:08:15;10.15;;;5.18;;
15254;SDS011;7730;49.610;11.136;2023-06-26T07:10:43;10.32;;;4.57;;
15254;SDS011;7730;49.610;11.136;2023-06-26T07:13:10;10.38;;;4.85;;
15254;SDS011;7730;49.610;11.136;2023-06-26T07:15:37;10.60;;;4.70;;
15254;SDS011;7730;49.610;11.136;2023-06-26T07:18:04;9.00;;;4.45;;
15254;SDS011;7730;49.610;11.136;2023-06-26T07:20:31;10.05;;;4.80;;
15254;SDS011;7730;49.610;11.136;2023-06-26T07:22:58;11.07;;;4.93;;
15254;SDS011;7730;49.610;11.136;2023-06-26T07:25:25;11.30;;;5.30;;
15254;SDS011;7730;49.610;11.136;2023-06-26T07:27:53;10.15;;;4.82;;
15254;SDS011;7730;49.610;11.136;2023-06-26T07:30:20;10.65;;;4.68;;
15254;SDS011;7730;49.610;11.136;2023-06-26T07:32:49;11.00;;;5.10;;
15254;SDS011;7730;49.610;11.136;2023-06-26T07:35:16;9.18;;;4.47;;
15254;SDS011;7730;49.610;11.136;2023-06-26T07:37:43;10.52;;;4.30;;
15254;SDS011;7730;49.610;11.136;2023-06-26T07:40:10;12.70;;;4.43;;
15254;SDS011;7730;49.610;11.136;2023-06-26T07:42:37;11.43;;;5.40;;
15254;SDS011;7730;49.610;11.136;2023-06-26T07:45:07;12.45;;;5.20;;
15254;SDS011;7730;49.610;11.136;2023-06-26T07:47:37;10.32;;;4.75;;
15254;SDS011;7730;49.610;11.136;2023-06-26T07:50:04;10.75;;;4.70;;
15254;SDS011;7730;49.610;11.136;2023-06-26T07:52:31;11.68;;;5.40;;
15254;SDS011;7730;49.610;11.136;2023-06-26T07:54:58;10.77;;;4.65;;
15254;SDS011;7730;49.610;11.136;2023-06-26T07:57:25;10.90;;;4.97;;
15254;SDS011;7730;49.610;11.136;2023-06-26T07:59:52;11.65;;;4.82;;
15254;SDS011;7730;49.610;11.136;2023-06-26T08:02:22;10.20;;;4.68;;
15254;SDS011;7730;49.610;11.136;2023-06-26T08:04:49;9.13;;;4.53;;
15254;SDS011;7730;49.610;11.136;2023-06-26T08:07:16;10.80;;;5.53;;
15254;SDS011;7730;49.610;11.136;2023-06-26T08:09:43;10.52;;;4.72;;
15254;SDS011;7730;49.610;11.136;2023-06-26T08:12:10;11.45;;;5.20;;
15254;SDS011;7730;49.610;11.136;2023-06-26T08:14:37;10.57;;;4.93;;
15254;SDS011;7730;49.610;11.136;2023-06-26T08:17:05;10.70;;;5.25;;
15254;SDS011;7730;49.610;11.136;2023-06-26T08:19:33;10.20;;;4.93;;
15254;SDS011;7730;49.610;11.136;2023-06-26T08:22:00;12.18;;;4.78;;
15254;SDS011;7730;49.610;11.136;2023-06-26T08:24:27;10.90;;;4.85;;
15254;SDS011;7730;49.610;11.136;2023-06-26T08:26:54;10.52;;;5.05;;
15254;SDS011;7730;49.610;11.136;2023-06-26T08:29:21;9.82;;;4.65;;
15254;SDS011;7730;49.610;11.136;2023-06-26T08:31:48;12.27;;;5.60;;
15254;SDS011;7730;49.610;11.136;2023-06-26T08:34:15;11.80;;;5.10;;
15254;SDS011;7730;49.610;11.136;2023-06-26T08:36:43;11.00;;;5.07;;
15254;SDS011;7730;49.610;11.136;2023-06-26T08:39:10;10.10;;;4.60;;
15254;SDS011;7730;49.610;11.136;2023-06-26T08:41:38;11.05;;;5.10;;
15254;SDS011;7730;49.610;11.136;2023-06-26T08:44:05;11.18;;;5.18;;
15254;SDS011;7730;49.610;11.136;2023-06-26T08:46:31;11.55;;;5.30;;
15254;SDS011;7730;49.610;11.136;2023-06-26T08:49:01;10.80;;;5.28;;
15254;SDS011;7730;49.610;11.136;2023-06-26T08:51:28;10.38;;;4.93;;
15254;SDS011;7730;49.610;11.136;2023-06-26T08:53:57;10.93;;;4.95;;
15254;SDS011;7730;49.610;11.136;2023-06-26T08:56:25;10.60;;;5.00;;
15254;SDS011;7730;49.610;11.136;2023-06-26T08:58:54;14.18;;;6.03;;
15254;SDS011;7730;49.610;11.136;2023-06-26T09:01:21;11.68;;;5.38;;
15254;SDS011;7730;49.610;11.136;2023-06-26T09:03:49;10.07;;;4.55;;
15254;SDS011;7730;49.610;11.136;2023-06-26T09:06:16;14.43;;;6.00;;
15254;SDS011;7730;49.610;11.136;2023-06-26T09:08:43;13.10;;;6.30;;
15254;SDS011;7730;49.610;11.136;2023-06-26T09:11:12;11.57;;;5.90;;
15254;SDS011;7730;49.610;11.136;2023-06-26T09:13:39;12.23;;;5.93;;
15254;SDS011;7730;49.610;11.136;2023-06-26T09:16:06;14.07;;;6.45;;
15254;SDS011;7730;49.610;11.136;2023-06-26T09:18:34;16.02;;;6.43;;
15254;SDS011;7730;49.610;11.136;2023-06-26T09:21:04;13.30;;;5.40;;
15254;SDS011;7730;49.610;11.136;2023-06-26T09:23:32;13.77;;;6.10;;
15254;SDS011;7730;49.610;11.136;2023-06-26T09:26:01;11.48;;;5.90;;
15254;SDS011;7730;49.610;11.136;2023-06-26T09:28:30;13.07;;;6.35;;
15254;SDS011;7730;49.610;11.136;2023-06-26T09:31:00;14.20;;;6.10;;
15254;SDS011;7730;49.610;11.136;2023-06-26T09:33:27;13.20;;;6.60;;
15254;SDS011;7730;49.610;11.136;2023-06-26T09:35:54;16.52;;;6.70;;
15254;SDS011;7730;49.610;11.136;2023-06-26T09:38:21;14.07;;;6.65;;
15254;SDS011;7730;49.610;11.136;2023-06-26T09:40:48;14.00;;;7.45;;
15254;SDS011;7730;49.610;11.136;2023-06-26T09:43:15;11.52;;;5.30;;
15254;SDS011;7730;49.610;11.136;2023-06-26T09:45:45;12.20;;;5.25;;
15254;SDS011;7730;49.610;11.136;2023-06-26T09:48:13;13.32;;;6.30;;
15254;SDS011;7730;49.610;11.136;2023-06-26T09:50:42;12.18;;;5.93;;
15254;SDS011;7730;49.610;11.136;2023-06-26T09:53:09;11.88;;;5.70;;
15254;SDS011;7730;49.610;11.136;2023-06-26T09:55:37;12.63;;;5.78;;
15254;SDS011;7730;49.610;11.136;2023-06-26T09:58:04;12.80;;;6.18;;
15254;SDS011;7730;49.610;11.136;2023-06-26T10:00:32;11.85;;;5.95;;
15254;SDS011;7730;49.610;11.136;2023-06-26T10:03:00;10.23;;;5.03;;
15254;SDS011;7730;49.610;11.136;2023-06-26T10:05:27;12.00;;;5.82;;
15254;SDS011;7730;49.610;11.136;2023-06-26T10:07:54;13.60;;;6.47;;
15254;SDS011;7730;49.610;11.136;2023-06-26T10:10:22;12.48;;;5.22;;
15254;SDS011;7730;49.610;11.136;2023-06-26T10:12:51;12.75;;;6.22;;
15254;SDS011;7730;49.610;11.136;2023-06-26T10:15:21;12.10;;;5.10;;
15254;SDS011;7730;49.610;11.136;2023-06-26T10:17:49;11.63;;;5.90;;
15254;SDS011;7730;49.610;11.136;2023-06-26T10:20:17;13.15;;;5.97;;
15254;SDS011;7730;49.610;11.136;2023-06-26T10:22:45;11.00;;;5.13;;
15254;SDS011;7730;49.610;11.136;2023-06-26T10:25:14;10.80;;;4.40;;
15254;SDS011;7730;49.610;11.136;2023-06-26T10:27:44;12.82;;;5.80;;
15254;SDS011;7730;49.610;11.136;2023-06-26T10:30:12;10.35;;;4.68;;
15254;SDS011;7730;49.610;11.136;2023-06-26T10:32:39;12.65;;;6.13;;
15254;SDS011;7730;49.610;11.136;2023-06-26T10:35:07;11.10;;;5.22;;
15254;SDS011;7730;49.610;11.136;2023-06-26T10:37:41;11.13;;;5.78;;
15254;SDS011;7730;49.610;11.136;2023-06-26T10:40:09;12.20;;;5.70;;
15254;SDS011;7730;49.610;11.136;2023-06-26T10:42:36;12.05;;;5.55;;
15254;SDS011;7730;49.610;11.136;2023-06-26T10:45:10;11.20;;;5.50;;
15254;SDS011;7730;49.610;11.136;2023-06-26T10:47:38;12.90;;;5.70;;
15254;SDS011;7730;49.610;11.136;2023-06-26T10:50:16;11.65;;;4.88;;
15254;SDS011;7730;49.610;11.136;2023-06-26T10:52:45;10.63;;;5.13;;
15254;SDS011;7730;49.610;11.136;2023-06-26T10:55:13;12.05;;;5.53;;
15254;SDS011;7730;49.610;11.136;2023-06-26T10:57:44;12.85;;;5.80;;
15254;SDS011;7730;49.610;11.136;2023-06-26T11:00:14;12.23;;;5.55;;
15254;SDS011;7730;49.610;11.136;2023-06-26T11:02:48;12.07;;;5.63;;
15254;SDS011;7730;49.610;11.136;2023-06-26T11:05:23;11.73;;;5.55;;
15254;SDS011;7730;49.610;11.136;2023-06-26T11:08:04;11.93;;;6.00;;
15254;SDS011;7730;49.610;11.136;2023-06-26T11:13:13;10.57;;;5.32;;
15254;SDS011;7730;49.610;11.136;2023-06-26T11:15:42;11.68;;;5.50;;
15254;SDS011;7730;49.610;11.136;2023-06-26T11:18:09;11.07;;;5.25;;
15254;SDS011;7730;49.610;11.136;2023-06-26T11:20:36;10.93;;;5.13;;
15254;SDS011;7730;49.610;11.136;2023-06-26T11:23:05;12.93;;;5.45;;
15254;SDS011;7730;49.610;11.136;2023-06-26T11:25:33;10.40;;;5.10;;
15254;SDS011;7730;49.610;11.136;2023-06-26T11:28:01;10.63;;;5.35;;
15254;SDS011;7730;49.610;11.136;2023-06-26T11:30:28;11.65;;;5.38;;
15254;SDS011;7730;49.610;11.136;2023-06-26T11:33:02;12.23;;;5.30;;
15254;SDS011;7730;49.610;11.136;2023-06-26T11:35:29;14.20;;;5.65;;
15254;SDS011;7730;49.610;11.136;2023-06-26T11:37:56;12.77;;;5.10;;
15254;SDS011;7730;49.610;11.136;2023-06-26T11:40:26;11.20;;;5.45;;
15254;SDS011;7730;49.610;11.136;2023-06-26T11:42:56;11.30;;;5.20;;
15254;SDS011;7730;49.610;11.136;2023-06-26T11:45:24;12.77;;;5.20;;
15254;SDS011;7730;49.610;11.136;2023-06-26T11:47:51;9.93;;;5.03;;
15254;SDS011;7730;49.610;11.136;2023-06-26T11:50:18;10.73;;;5.65;;
15254;SDS011;7730;49.610;11.136;2023-06-26T11:52:45;12.30;;;5.30;;
15254;SDS011;7730;49.610;11.136;2023-06-26T11:55:12;11.80;;;5.30;;
15254;SDS011;7730;49.610;11.136;2023-06-26T11:57:41;11.88;;;5.22;;
15254;SDS011;7730;49.610;11.136;2023-06-26T12:00:11;10.70;;;5.32;;
15254;SDS011;7730;49.610;11.136;2023-06-26T12:02:38;11.25;;;5.20;;
15254;SDS011;7730;49.610;11.136;2023-06-26T12:05:05;9.68;;;4.68;;
15254;SDS011;7730;49.610;11.136;2023-06-26T12:07:32;10.20;;;4.43;;
15254;SDS011;7730;49.610;11.136;2023-06-26T12:10:01;10.95;;;5.55;;
15254;SDS011;7730;49.610;11.136;2023-06-26T12:12:29;9.57;;;4.72;;
15254;SDS011;7730;49.610;11.136;2023-06-26T12:14:57;10.82;;;4.60;;
15254;SDS011;7730;49.610;11.136;2023-06-26T12:17:25;10.20;;;4.55;;
15254;SDS011;7730;49.610;11.136;2023-06-26T12:19:52;11.38;;;5.38;;
15254;SDS011;7730;49.610;11.136;2023-06-26T12:22:19;10.00;;;4.57;;
15254;SDS011;7730;49.610;11.136;2023-06-26T12:24:46;10.93;;;5.00;;
15254;SDS011;7730;49.610;11.136;2023-06-26T12:27:14;10.20;;;4.47;;
15254;SDS011;7730;49.610;11.136;2023-06-26T12:29:45;9.70;;;4.10;;
15254;SDS011;7730;49.610;11.136;2023-06-26T12:32:14;9.88;;;4.70;;
15254;SDS011;7730;49.610;11.136;2023-06-26T12:34:41;10.38;;;4.68;;
15254;SDS011;7730;49.610;11.136;2023-06-26T12:37:08;11.48;;;4.75;;
15254;SDS011;7730;49.610;11.136;2023-06-26T12:39:44;9.73;;;4.70;;
15254;SDS011;7730;49.610;11.136;2023-06-26T12:42:13;9.13;;;3.92;;
15254;SDS011;7730;49.610;11.136;2023-06-26T12:44:40;10.82;;;4.50;;
15254;SDS011;7730;49.610;11.136;2023-06-26T12:47:07;9.55;;;4.38;;
15254;SDS011;7730;49.610;11.136;2023-06-26T12:49:37;8.98;;;4.30;;
15254;SDS011;7730;49.610;11.136;2023-06-26T12:52:05;11.30;;;4.40;;
15254;SDS011;7730;49.610;11.136;2023-06-26T12:54:33;11.40;;;4.80;;
15254;SDS011;7730;49.610;11.136;2023-06-26T12:57:00;9.70;;;4.30;;
15254;SDS011;7730;49.610;11.136;2023-06-26T12:59:28;8.57;;;4.32;;
15254;SDS011;7730;49.610;11.136;2023-06-26T13:01:56;10.90;;;4.35;;
15254;SDS011;7730;49.610;11.136;2023-06-26T13:04:23;10.35;;;4.50;;
15254;SDS011;7730;49.610;11.136;2023-06-26T13:06:51;9.50;;;4.50;;
15254;SDS011;7730;49.610;11.136;2023-06-26T13:09:19;10.25;;;4.53;;
15254;SDS011;7730;49.610;11.136;2023-06-26T13:11:46;8.88;;;4.45;;
15254;SDS011;7730;49.610;11.136;2023-06-26T13:14:13;7.35;;;3.75;;
15254;SDS011;7730;49.610;11.136;2023-06-26T13:16:41;9.07;;;4.05;;
15254;SDS011;7730;49.610;11.136;2023-06-26T13:19:08;10.63;;;4.50;;
15254;SDS011;7730;49.610;11.136;2023-06-26T13:21:35;11.82;;;4.90;;
15254;SDS011;7730;49.610;11.136;2023-06-26T13:24:04;10.63;;;4.82;;
15254;SDS011;7730;49.610;11.136;2023-06-26T13:26:31;9.30;;;4.30;;
15254;SDS011;7730;49.610;11.136;2023-06-26T13:28:58;9.88;;;4.65;;
15254;SDS011;7730;49.610;11.136;2023-06-26T13:31:25;11.27;;;4.80;;
15254;SDS011;7730;49.610;11.136;2023-06-26T13:33:52;9.60;;;4.40;;
15254;SDS011;7730;49.610;11.136;2023-06-26T13:36:19;10.35;;;4.60;;
15254;SDS011;7730;49.610;11.136;2023-06-26T13:38:47;10.50;;;4.80;;
15254;SDS011;7730;49.610;11.136;2023-06-26T13:41:21;10.52;;;5.13;;
15254;SDS011;7730;49.610;11.136;2023-06-26T13:43:48;10.07;;;4.97;;
15254;SDS011;7730;49.610;11.136;2023-06-26T13:46:15;10.90;;;4.80;;
15254;SDS011;7730;49.610;11.136;2023-06-26T13:48:43;11.60;;;5.10;;
15254;SDS011;7730;49.610;11.136;2023-06-26T13:51:10;11.23;;;4.97;;
15254;SDS011;7730;49.610;11.136;2023-06-26T13:53:37;11.65;;;5.20;;
15254;SDS011;7730;49.610;11.136;2023-06-26T13:56:04;10.77;;;5.13;;
15254;SDS011;7730;49.610;11.136;2023-06-26T13:58:34;10.20;;;5.20;;
15254;SDS011;7730;49.610;11.136;2023-06-26T14:01:01;12.70;;;5.40;;
15254;SDS011;7730;49.610;11.136;2023-06-26T14:03:29;11.18;;;5.00;;
15254;SDS011;7730;49.610;11.136;2023-06-26T14:08:24;11.88;;;5.35;;
15254;SDS011;7730;49.610;11.136;2023-06-26T14:10:51;10.88;;;5.30;;
15254;SDS011;7730;49.610;11.136;2023-06-26T14:13:18;11.82;;;5.28;;
15254;SDS011;7730;49.610;11.136;2023-06-26T14:15:46;10.30;;;5.25;;
15254;SDS011;7730;49.610;11.136;2023-06-26T14:18:13;12.85;;;5.18;;
15254;SDS011;7730;49.610;11.136;2023-06-26T14:20:42;13.10;;;5.15;;
15254;SDS011;7730;49.610;11.136;2023-06-26T14:23:09;11.68;;;5.28;;
15254;SDS011;7730;49.610;11.136;2023-06-26T14:25:36;10.50;;;5.35;;
15254;SDS011;7730;49.610;11.136;2023-06-26T14:28:03;9.85;;;4.60;;
15254;SDS011;7730;49.610;11.136;2023-06-26T14:30:30;9.75;;;5.13;;
15254;SDS011;7730;49.610;11.136;2023-06-26T14:32:58;11.38;;;5.32;;
15254;SDS011;7730;49.610;11.136;2023-06-26T14:35:25;8.65;;;4.55;;
15254;SDS011;7730;49.610;11.136;2023-06-26T14:37:52;11.02;;;4.93;;
15254;SDS011;7730;49.610;11.136;2023-06-26T14:40:19;10.90;;;5.25;;
15254;SDS011;7730;49.610;11.136;2023-06-26T14:42:46;13.63;;;5.85;;
15254;SDS011;7730;49.610;11.136;2023-06-26T14:45:13;10.05;;;5.20;;